Latest Weather Observations for Cowra

IDN60801

Issued at 12:02 pm EDT Wednesday 1 April 2015 (issued every 30 minutes, with the page automatically refreshed every 10 minutes)

About weather observations | Map of weather stations | Latest weather observations for NSW | Other Formats
Station Details ID: 065111 Name: COWRA AIRPORT AWS Lat: -33.84 Lon: 148.65 Height: 296.5 m
Data from the previous 72 hours. | See also: Recent months at Cowra
Date/Time
EDT
Temp
°C
App
Temp
°C
Dew
Point
Rel
Hum
%
Delta-T
°C
Wind Press
QNH
hPa
Press
MSL
hPa
Rain
since 9 am
mm
Dir
 
Spd
km/h
Gust
km/h
Spd
kts
Gust
kts
01/12:00pm 26.1 23.8 12.9 44 7.8 NNW 17 28 9 15 1022.5 1022.3 0.0
01/11:30am 24.7 22.3 12.6 47 7.0 NNW 17 24 9 13 1023.1 - 0.0
01/11:00am 24.0 21.5 12.3 48 6.8 N 17 30 9 16 1023.4 - 0.0
01/10:30am 22.9 21.3 12.8 53 5.9 ENE 13 19 7 10 1023.8 - 0.0
01/10:00am 21.2 20.4 12.9 59 4.8 ENE 9 15 5 8 1024.1 - 0.0
01/09:30am 19.0 17.5 12.0 64 3.9 E 11 15 6 8 1024.4 - 0.0
01/09:00am 18.0 17.0 12.2 69 3.2 ESE 9 11 5 6 1024.4 1024.2 0.0
01/08:30am 15.3 14.6 11.5 78 2.1 SSE 6 7 3 4 1024.4 - 0.0
01/08:00am 13.1 12.0 10.6 85 1.3 S 7 11 4 6 1023.9 - 0.0
01/07:30am 11.0 9.4 8.6 85 1.2 SSW 7 9 4 5 1023.6 - 0.0
01/07:00am 12.0 10.6 9.7 86 1.2 S 7 11 4 6 1023.4 - 0.0
01/06:30am 12.9 11.5 10.8 87 1.1 S 9 9 5 5 1023.2 - 0.0
01/06:00am 12.4 10.3 9.8 84 1.3 S 11 11 6 6 1022.9 1022.8 0.0
01/05:30am 14.2 13.1 11.9 86 1.3 SE 9 15 5 8 1022.8 - 0.0
01/05:00am 12.5 12.0 9.3 81 1.6 SE 2 7 1 4 1023.1 - 0.0
01/04:30am 11.9 11.1 8.2 78 1.8 SE 2 7 1 4 1023.4 - 0.0
01/04:00am 13.6 13.2 9.8 78 2.0 SE 2 7 1 4 1023.5 - 0.0
01/03:30am 14.2 13.2 10.4 78 2.0 SE 6 9 3 5 1023.8 - 0.0
01/03:00am 15.2 13.9 11.2 77 2.2 E 9 13 5 7 1024.1 1023.9 0.0
01/02:30am 14.2 13.2 10.2 77 2.1 ESE 6 11 3 6 1024.5 - 0.0
01/02:00am 13.0 12.8 8.9 76 2.1 CALM 0 0 0 0 1024.8 - 0.0
01/01:30am 15.8 16.3 11.6 76 2.3 CALM 0 6 0 3 1024.8 - 0.0
01/01:00am 15.2 15.1 9.3 68 3.1 CALM 0 0 0 0 1024.7 - 0.0
01/12:30am 17.7 17.0 11.3 66 3.5 E 6 7 3 4 1024.9 - 0.0
01/12:00am 18.1 16.8 11.2 64 3.8 ENE 9 13 5 7 1025.0 1024.1 0.0
 
Date/Time
EDT
Temp
°C
App
Temp
°C
Dew
Point
Rel
Hum
%
Delta-T
°C
Wind Press
QNH
hPa
Press
MSL
hPa
Rain
since 9 am
mm
Dir
 
Spd
km/h
Gust
km/h
Spd
kts
Gust
kts
31/11:30pm 18.3 17.0 11.1 63 3.9 ENE 9 13 5 7 1025.0 - 0.0
31/11:00pm 19.3 18.1 11.6 61 4.3 E 9 17 5 9 1025.0 - 0.0
31/10:30pm 19.9 19.0 11.4 58 4.7 E 7 17 4 9 1024.9 - 0.0
31/10:00pm 20.2 18.9 11.4 57 4.9 E 9 13 5 7 1024.5 - 0.0
31/09:30pm 20.2 18.1 11.1 56 5.1 ENE 13 20 7 11 1023.9 - 0.0
31/09:00pm 21.2 19.7 10.7 51 5.8 E 9 13 5 7 1023.9 1023.0 0.0
31/08:30pm 21.8 20.3 10.6 49 6.2 E 9 15 5 8 1023.3 - 0.0
31/08:00pm 22.4 20.4 10.2 46 6.8 E 11 15 6 8 1022.8 - 0.0
31/07:30pm 23.1 21.4 9.8 43 7.3 E 9 15 5 8 1022.4 - 0.0
31/07:00pm 24.4 21.9 9.6 39 8.2 E 13 20 7 11 1022.0 - 0.0
31/06:30pm 25.6 22.5 9.0 35 9.1 E 15 22 8 12 1021.8 - 0.0
31/06:00pm 26.5 23.4 8.9 33 9.7 E 15 20 8 11 1021.6 1020.8 0.0
31/05:30pm 26.9 24.1 8.4 31 10.2 E 13 22 7 12 1021.7 - 0.0
31/05:00pm 27.4 24.4 9.3 32 10.1 E 15 20 8 11 1021.7 - 0.0
31/04:30pm 26.5 24.2 8.9 33 9.7 E 11 17 6 9 1021.9 - 0.0
31/04:00pm 26.2 24.0 9.5 35 9.3 E 11 15 6 8 1022.3 - 0.0
31/03:30pm 26.2 24.5 10.0 36 9.1 E 9 17 5 9 1022.7 - 0.0
31/03:00pm 26.1 24.0 9.9 36 9.1 ESE 11 20 6 11 1022.9 1022.2 0.0
31/02:30pm 26.7 24.8 10.4 36 9.2 E 11 19 6 10 1023.4 - 0.0
31/02:00pm 26.2 24.2 10.0 36 9.1 SE 11 17 6 9 1023.5 - 0.0
31/01:30pm 25.6 22.7 9.8 37 8.8 E 15 20 8 11 1023.9 - 0.0
31/01:00pm 25.3 23.2 9.6 37 8.7 ESE 11 17 6 9 1024.3 - 0.0
31/12:30pm 25.4 23.2 9.3 36 8.9 E 11 17 6 9 1024.7 - 0.0
31/12:00pm 24.7 23.3 10.9 42 7.8 SE 9 17 5 9 1025.2 1024.5 0.0
31/11:30am 24.5 23.3 11.5 44 7.4 E 9 13 5 7 1025.6 - 0.0
31/11:00am 22.9 22.1 11.6 49 6.4 E 7 13 4 7 1025.9 - 0.0
31/10:30am 22.1 20.4 11.2 50 6.1 ESE 11 22 6 12 1026.0 - 0.0
31/10:00am 20.9 18.9 11.5 55 5.3 S 13 20 7 11 1026.0 - 0.0
31/09:30am 20.2 18.6 11.7 58 4.8 SSE 11 17 6 9 1025.8 - 0.0
31/09:00am 17.9 17.0 11.5 66 3.5 S 7 11 4 6 1025.7 1025.0 0.0
31/08:30am 15.1 13.7 9.0 67 3.2 S 6 7 3 4 1025.4 - 0.0
31/08:00am 12.4 11.8 7.5 72 2.4 CALM 0 0 0 0 1025.1 - 0.0
31/07:30am 11.7 10.6 6.8 72 2.4 SSE 2 7 1 4 1024.7 - 0.0
31/07:00am 12.5 11.1 7.2 70 2.6 SSW 4 9 2 5 1024.4 - 0.0
31/06:30am 11.2 9.5 5.7 69 2.6 WNW 4 9 2 5 1024.2 - 0.0
31/06:00am 13.4 12.7 7.0 65 3.1 CALM 0 0 0 0 1023.8 1023.0 0.0
31/05:30am 13.4 11.9 6.7 64 3.3 SSW 4 6 2 3 1023.7 - 0.0
31/05:00am 13.6 11.6 6.9 64 3.3 S 7 9 4 5 1023.7 - 0.0
31/04:30am 13.9 13.1 6.7 62 3.5 CALM 0 6 0 3 1023.7 - 0.0
31/04:00am 14.2 12.1 6.6 60 3.7 S 7 9 4 5 1023.9 - 0.0
31/03:30am 14.4 13.1 6.0 57 4.1 SE 2 7 1 4 1024.3 - 0.0
31/03:00am 13.2 11.2 6.3 63 3.3 NNE 6 9 3 5 1024.5 1023.7 0.0
31/02:30am 13.7 12.6 5.3 57 4.0 CALM 0 0 0 0 1024.7 - 0.0
31/02:00am 15.2 12.9 5.7 53 4.6 S 7 9 4 5 1024.9 - 0.0
31/01:30am 15.5 12.9 6.2 54 4.6 S 9 11 5 6 1025.0 - 0.0
31/01:00am 14.4 11.8 6.0 57 4.1 SSW 9 13 5 7 1024.9 - 0.0
31/12:30am 17.6 15.5 6.8 49 5.5 E 7 9 4 5 1024.8 - 0.0
31/12:00am 17.4 14.9 6.6 49 5.4 E 9 9 5 5 1024.8 1024.0 0.0
 
Date/Time
EDT
Temp
°C
App
Temp
°C
Dew
Point
Rel
Hum
%
Delta-T
°C
Wind Press
QNH
hPa
Press
MSL
hPa
Rain
since 9 am
mm
Dir
 
Spd
km/h
Gust
km/h
Spd
kts
Gust
kts
30/11:30pm 18.4 16.3 6.6 46 6.0 ESE 7 9 4 5 1024.9 - 0.0
30/11:00pm 19.2 17.0 6.3 43 6.5 ESE 7 9 4 5 1024.7 - 0.0
30/10:30pm 20.6 18.1 6.5 40 7.2 ESE 9 11 5 6 1024.6 - 0.0
30/10:00pm 20.3 17.4 6.3 40 7.1 ESE 11 13 6 7 1024.6 - 0.0
30/09:30pm 20.6 18.0 6.2 39 7.3 SE 9 11 5 6 1024.5 - 0.0
30/09:00pm 20.7 18.1 5.9 38 7.5 E 9 13 5 7 1024.4 1023.6 0.0
30/08:30pm 21.0 18.3 5.8 37 7.7 E 9 11 5 6 1024.2 - 0.0
30/08:00pm 21.7 19.0 5.6 35 8.2 ESE 9 13 5 7 1023.9 - 0.0
30/07:30pm 22.2 18.9 4.7 32 8.7 SE 11 15 6 8 1023.6 - 0.0
30/07:00pm 22.8 19.1 4.3 30 9.2 SE 13 20 7 11 1023.3 - 0.0
30/06:30pm 23.6 19.9 4.5 29 9.6 SSE 13 17 7 9 1022.9 - 0.0
30/06:00pm 23.6 19.8 4.0 28 9.7 S 13 19 7 10 1022.7 1022.0 0.0
30/05:30pm 23.8 20.1 4.2 28 9.8 S 13 17 7 9 1022.5 - 0.0
30/05:00pm 23.7 20.7 4.1 28 9.8 SSW 9 13 5 7 1022.3 - 0.0
30/04:30pm 23.9 19.8 4.3 28 9.8 S 15 20 8 11 1022.0 - 0.0
30/04:00pm 24.3 22.0 3.0 25 10.5 S 4 11 2 6 1022.0 - 0.0
30/03:30pm 24.4 21.2 3.1 25 10.5 ESE 9 17 5 9 1022.1 - 0.0
30/03:00pm 25.1 22.1 4.3 26 10.5 ESE 9 15 5 8 1022.2 1021.4 0.0
30/02:30pm 24.5 21.9 3.2 25 10.5 WSW 6 19 3 10 1022.4 - 0.0
30/02:00pm 24.1 21.6 4.0 27 10.0 S 6 17 3 9 1022.8 - 0.0
30/01:30pm 23.5 20.6 4.5 29 9.5 S 9 15 5 8 1023.3 - 0.0
30/01:00pm 23.2 20.3 4.7 30 9.3 S 9 17 5 9 1023.6 - 0.0
30/12:30pm 22.5 20.3 5.4 33 8.7 SW 6 11 3 6 1024.2 - 0.0
30/12:00pm 21.6 18.4 5.1 34 8.2 N 11 13 6 7 1024.7 1023.9 0.0
30/11:30am 22.0 18.9 5.4 34 8.4 N 11 15 6 8 1025.0 - 0.0
30/11:00am 21.5 18.6 4.6 33 8.4 SW 9 15 5 8 1025.3 - 0.0
30/10:30am 20.6 16.9 4.6 35 7.9 SSW 13 20 7 11 1025.5 - 0.0
30/10:00am 20.0 16.1 5.3 38 7.3 SSW 15 20 8 11 1025.6 - 0.0
30/09:30am 18.6 15.8 5.1 41 6.6 S 9 11 5 6 1025.5 - 0.0
30/09:00am 17.5 13.9 5.1 44 6.0 S 13 15 7 8 1025.2 1024.4 0.0
30/08:30am 16.5 14.2 5.8 49 5.3 SSE 7 9 4 5 1024.9 - 0.0
30/08:00am 15.5 13.2 5.7 52 4.8 S 7 9 4 5 1024.5 - 0.0
30/07:30am 15.8 13.1 5.7 51 4.9 SSW 9 11 5 6 1024.2 - 0.0
30/07:00am 16.7 13.2 5.3 47 5.5 ESE 13 17 7 9 1023.8 - 0.0
30/06:30am 15.2 13.8 5.4 52 4.7 E 2 11 1 6 1023.7 - 0.0
30/06:00am 15.4 13.0 5.3 51 4.8 SE 7 9 4 5 1023.4 1022.7 0.0
30/05:30am 15.1 11.2 5.3 52 4.7 WSW 15 19 8 10 1023.3 - 0.0
30/05:00am 16.4 12.9 5.4 48 5.4 ESE 13 17 7 9 1022.5 - 0.0
30/04:30am 15.1 12.8 5.9 54 4.5 SE 7 9 4 5 1023.2 - 0.0
30/04:00am 14.7 12.4 5.8 55 4.3 SSW 7 9 4 5 1023.4 - 0.0
30/03:30am 15.0 13.9 5.2 52 4.7 CALM 0 0 0 0 1023.4 - 0.0
30/03:00am 15.0 13.9 5.2 52 4.7 CALM 0 0 0 0 1023.3 1022.5 0.0
30/02:30am 15.1 13.2 5.0 51 4.8 S 4 7 2 4 1023.4 - 0.0
30/02:00am 14.4 11.6 5.2 54 4.4 S 9 9 5 5 1023.5 - 0.0
30/01:30am 14.9 12.5 5.1 52 4.7 S 7 9 4 5 1023.5 - 0.0
30/01:00am 14.7 13.5 4.7 51 4.7 CALM 0 0 0 0 1023.6 - 0.0
30/12:30am 15.6 13.1 4.6 48 5.2 S 7 9 4 5 1023.5 - 0.0
30/12:00am 16.5 15.2 4.2 44 5.8 CALM 0 0 0 0 1023.5 1022.7 0.0
 
Date/Time
EDT
Temp
°C
App
Temp
°C
Dew
Point
Rel
Hum
%
Delta-T
°C
Wind Press
QNH
hPa
Press
MSL
hPa
Rain
since 9 am
mm
Dir
 
Spd
km/h
Gust
km/h
Spd
kts
Gust
kts
29/11:30pm 18.0 15.0 3.9 39 6.7 SE 9 11 5 6 1023.6 - 0.0
29/11:00pm 18.4 15.3 3.8 38 7.0 SE 9 11 5 6 1023.8 - 0.0
29/10:30pm 18.6 15.9 3.6 37 7.2 S 7 11 4 6 1024.0 - 0.0
29/10:00pm 18.6 16.1 3.6 37 7.2 S 6 7 3 4 1024.0 - 0.0
29/09:30pm 17.7 15.0 2.8 37 6.9 SSW 6 9 3 5 1023.8 - 0.0
29/09:00pm 18.6 15.7 2.4 34 7.5 SSW 7 9 4 5 1023.1 1022.3 0.0
29/08:30pm 19.8 17.0 3.1 33 8.0 S 7 9 4 5 1022.7 - 0.0
29/08:00pm 20.3 17.0 2.6 31 8.4 S 9 11 5 6 1022.2 - 0.0
29/07:30pm 20.8 17.1 2.6 30 8.7 S 11 11 6 6 1022.1 - 0.0
29/07:00pm 22.1 18.0 2.2 27 9.5 SSW 13 15 7 8 1021.9 - 0.0
29/06:30pm 23.0 18.9 2.5 26 9.9 SSW 13 17 7 9 1021.7 - 0.0
29/06:00pm 23.7 19.2 2.0 24 10.4 SSW 15 17 8 9 1021.4 1020.6 0.0
29/05:30pm 25.0 21.9 1.2 21 11.4 S 7 11 4 6 1021.2 - 0.0
29/05:00pm 25.4 21.4 0.8 20 11.7 WSW 11 17 6 9 1021.5 - 0.0
29/04:30pm 25.6 21.3 1.0 20 11.8 WSW 13 19 7 10 1021.4 - 0.0
29/04:00pm 25.5 22.1 1.6 21 11.5 S 9 19 5 10 1021.6 - 0.0
29/03:30pm 25.0 20.3 1.2 21 11.4 S 15 22 8 12 1021.8 - 0.0
29/03:00pm 24.9 20.3 1.7 22 11.1 SSW 15 24 8 13 1022.2 1021.4 0.0
29/02:30pm 24.6 20.9 2.1 23 10.9 SSW 11 19 6 10 1022.5 - 0.0
29/02:00pm 23.7 19.6 2.5 25 10.3 SW 13 20 7 11 1022.6 - 0.0
29/01:30pm 23.3 19.6 2.2 25 10.1 SSW 11 19 6 10 1022.9 - 0.0
29/01:00pm 22.5 19.7 3.1 28 9.4 NNW 7 13 4 7 1023.4 - 0.0
29/12:30pm 21.7 19.2 3.9 31 8.7 N 6 9 3 5 1023.7 - 0.0

Other Formats:

Comma delimited format used in spreadsheet applications
http://www.bom.gov.au/fwo/IDN60801/IDN60801.95721.axf

JavaScript Object Notation format (JSON) in row-major order
http://www.bom.gov.au/fwo/IDN60801/IDN60801.95721.json